createdAt,value
2023-05-17T00:00:44.329Z,5.10
2023-05-17T00:03:20.366Z,5.83
2023-05-17T00:05:51.760Z,5.20
2023-05-17T00:08:22.158Z,5.67
2023-05-17T00:10:51.523Z,5.80
2023-05-17T00:13:22.174Z,5.73
2023-05-17T00:15:53.751Z,5.87
2023-05-17T00:18:42.740Z,7.73
2023-05-17T00:21:19.745Z,11.80
2023-05-17T00:23:48.935Z,9.95
2023-05-17T00:26:20.090Z,9.37
2023-05-17T00:28:58.735Z,9.43
2023-05-17T00:31:27.682Z,9.77
2023-05-17T00:33:57.469Z,8.73
2023-05-17T00:36:28.814Z,9.93
2023-05-17T00:38:58.037Z,10.17
2023-05-17T00:41:27.616Z,9.43
2023-05-17T00:43:57.040Z,9.90
2023-05-17T00:46:30.561Z,9.70
2023-05-17T00:49:03.957Z,9.05
2023-05-17T00:51:34.783Z,8.90
2023-05-17T00:54:05.873Z,9.00
2023-05-17T00:56:36.813Z,10.53
2023-05-17T00:59:08.970Z,9.47
2023-05-17T01:01:43.776Z,9.40
2023-05-17T01:04:17.493Z,9.43
2023-05-17T01:06:51.222Z,9.87
2023-05-17T01:09:23.636Z,10.17
2023-05-17T01:11:58.160Z,11.47
2023-05-17T01:14:42.284Z,10.73
2023-05-17T01:17:25.308Z,12.13
2023-05-17T01:20:13.785Z,11.40
2023-05-17T01:22:54.059Z,12.03
2023-05-17T01:25:41.131Z,12.77
2023-05-17T01:28:12.351Z,11.87
2023-05-17T01:30:47.242Z,12.50
2023-05-17T01:33:19.622Z,12.17
2023-05-17T01:35:54.472Z,12.37
2023-05-17T01:38:27.037Z,11.33
2023-05-17T01:41:05.878Z,11.67
2023-05-17T01:43:46.049Z,11.40
2023-05-17T01:46:19.295Z,11.70
2023-05-17T01:49:03.417Z,10.50
2023-05-17T01:51:36.963Z,10.40
2023-05-17T01:54:11.643Z,11.33
2023-05-17T01:56:46.690Z,10.27
2023-05-17T01:59:21.352Z,10.73
2023-05-17T02:01:52.688Z,10.50
2023-05-17T02:04:30.830Z,11.20
2023-05-17T02:07:04.207Z,9.93
2023-05-17T02:09:35.226Z,10.53
2023-05-17T02:12:09.576Z,9.53
2023-05-17T02:14:41.734Z,8.97
2023-05-17T02:17:13.169Z,9.30
2023-05-17T02:19:42.406Z,9.73
2023-05-17T02:22:11.456Z,9.87
2023-05-17T02:24:43.558Z,9.00
2023-05-17T02:27:14.312Z,9.77
2023-05-17T02:29:43.683Z,8.87
2023-05-17T02:32:22.900Z,9.40
2023-05-17T02:35:00.503Z,9.47
2023-05-17T02:37:32.875Z,9.60
2023-05-17T02:40:02.012Z,9.87
2023-05-17T02:42:32.842Z,10.40
2023-05-17T02:45:04.947Z,10.97
2023-05-17T02:47:36.558Z,10.90
2023-05-17T02:50:10.778Z,10.87
2023-05-17T02:55:15.096Z,10.70
2023-05-17T02:57:49.472Z,11.13
2023-05-17T03:00:22.112Z,10.80
2023-05-17T03:02:51.637Z,11.37
2023-05-17T03:05:27.818Z,11.47
2023-05-17T03:08:00.640Z,12.00
2023-05-17T03:10:30.518Z,11.23
2023-05-17T03:13:06.659Z,11.43
2023-05-17T03:15:40.819Z,11.00
2023-05-17T03:18:17.038Z,11.03
2023-05-17T03:20:46.826Z,10.80
2023-05-17T03:23:16.101Z,11.00
2023-05-17T03:26:01.723Z,11.93
2023-05-17T03:28:36.184Z,11.57
2023-05-17T03:31:08.981Z,11.63
2023-05-17T03:33:41.109Z,11.93
2023-05-17T03:36:15.757Z,12.27
2023-05-17T03:38:47.929Z,12.13
2023-05-17T03:41:20.893Z,11.13
2023-05-17T03:43:55.646Z,10.77
2023-05-17T03:46:25.013Z,11.07
2023-05-17T03:49:00.157Z,11.10
2023-05-17T03:51:35.179Z,8.80
2023-05-17T03:54:11.590Z,9.90
2023-05-17T03:56:48.701Z,10.60
2023-05-17T03:59:25.570Z,10.80
2023-05-17T04:02:05.626Z,9.28
2023-05-17T04:04:48.589Z,9.55
2023-05-17T04:07:17.909Z,10.63
2023-05-17T04:09:47.989Z,9.47
2023-05-17T04:12:17.964Z,8.70
2023-05-17T04:14:50.305Z,9.63
2023-05-17T04:17:22.373Z,9.27
2023-05-17T04:19:52.901Z,8.97
2023-05-17T04:22:23.052Z,8.83
2023-05-17T04:24:54.694Z,8.60
2023-05-17T04:27:29.861Z,8.20
2023-05-17T04:29:59.592Z,8.43
2023-05-17T04:32:33.625Z,9.00
2023-05-17T04:35:03.363Z,8.37
2023-05-17T04:37:33.010Z,8.57
2023-05-17T04:40:17.158Z,8.90
2023-05-17T04:42:47.041Z,8.77
2023-05-17T04:45:24.015Z,7.90
2023-05-17T04:47:58.587Z,8.33
2023-05-17T04:50:30.298Z,7.60
2023-05-17T04:53:04.474Z,8.70
2023-05-17T04:55:37.990Z,9.03
2023-05-17T04:58:12.871Z,8.77
2023-05-17T05:00:48.101Z,8.23
2023-05-17T05:03:17.275Z,8.30
2023-05-17T05:05:52.150Z,7.97
2023-05-17T05:08:26.736Z,7.83
2023-05-17T05:11:02.415Z,8.07
2023-05-17T05:13:37.731Z,7.23
2023-05-17T05:16:12.983Z,6.67
2023-05-17T05:18:42.459Z,7.63
2023-05-17T05:21:11.935Z,6.73
2023-05-17T05:23:43.532Z,6.63
2023-05-17T05:26:13.142Z,7.33
2023-05-17T05:28:42.813Z,7.60
2023-05-17T05:31:14.628Z,8.07
2023-05-17T05:33:50.414Z,7.73
2023-05-17T05:36:22.341Z,7.93
2023-05-17T05:38:53.333Z,7.77
2023-05-17T05:41:26.419Z,6.90
2023-05-17T05:43:55.967Z,8.00
2023-05-17T05:46:28.443Z,6.73
2023-05-17T05:49:00.302Z,7.55
2023-05-17T05:51:31.035Z,6.87
2023-05-17T05:54:03.559Z,6.50
2023-05-17T05:56:32.857Z,6.80
2023-05-17T05:59:02.838Z,5.87
2023-05-17T06:01:33.589Z,5.27
2023-05-17T06:04:03.907Z,6.13
2023-05-17T06:06:35.272Z,6.07
2023-05-17T06:09:11.750Z,5.97
2023-05-17T06:11:40.797Z,5.95
2023-05-17T06:14:18.034Z,5.87
2023-05-17T06:16:50.993Z,5.40
2023-05-17T06:19:32.373Z,5.93
2023-05-17T06:22:01.750Z,6.20
2023-05-17T06:24:37.096Z,5.90
2023-05-17T06:27:14.100Z,6.10
2023-05-17T06:29:51.082Z,6.17
2023-05-17T06:32:20.269Z,6.20
2023-05-17T06:34:51.686Z,7.10
2023-05-17T06:37:22.372Z,6.80
2023-05-17T06:40:00.114Z,5.97
2023-05-17T06:42:39.566Z,6.07
2023-05-17T06:45:18.847Z,6.10
2023-05-17T06:47:50.342Z,5.93
2023-05-17T06:50:29.882Z,5.43
2023-05-17T06:53:11.222Z,6.23
2023-05-17T06:55:41.297Z,5.43
2023-05-17T06:58:19.130Z,5.77
2023-05-17T07:00:48.350Z,6.17
2023-05-17T07:03:18.030Z,6.37
2023-05-17T07:05:47.239Z,5.70
2023-05-17T07:08:16.161Z,7.20
2023-05-17T07:10:45.511Z,6.23
2023-05-17T07:13:15.284Z,5.80
2023-05-17T07:15:45.043Z,6.07
2023-05-17T07:18:16.325Z,5.53
2023-05-17T07:20:53.141Z,5.33
2023-05-17T07:23:24.934Z,5.25
2023-05-17T07:25:55.101Z,6.17
2023-05-17T07:28:32.227Z,5.87
2023-05-17T07:31:08.158Z,5.70
2023-05-17T07:33:38.393Z,5.93
2023-05-17T07:36:10.747Z,5.70
2023-05-17T07:38:40.042Z,5.47
2023-05-17T07:41:13.338Z,6.07
2023-05-17T07:43:45.192Z,5.60
2023-05-17T07:46:19.793Z,6.33
2023-05-17T07:48:54.458Z,5.03
2023-05-17T07:51:26.784Z,5.80
2023-05-17T07:53:55.985Z,6.00
2023-05-17T07:56:25.931Z,5.27
2023-05-17T07:58:59.237Z,5.40
2023-05-17T08:01:28.932Z,5.23
2023-05-17T08:04:00.791Z,5.33
2023-05-17T08:06:32.805Z,5.17
2023-05-17T08:09:01.772Z,5.07
2023-05-17T08:11:31.061Z,4.60
2023-05-17T08:14:05.149Z,5.57
2023-05-17T08:16:34.438Z,4.35
2023-05-17T08:19:03.847Z,3.67
2023-05-17T08:21:33.524Z,3.87
2023-05-17T08:24:04.063Z,3.43
2023-05-17T08:26:33.678Z,3.23
2023-05-17T08:29:04.169Z,3.70
2023-05-17T08:31:38.670Z,3.73
2023-05-17T08:34:10.400Z,3.07
2023-05-17T08:36:39.907Z,3.60
2023-05-17T08:39:10.324Z,3.40
2023-05-17T08:41:42.069Z,3.50
2023-05-17T08:44:13.532Z,3.73
2023-05-17T08:46:58.355Z,3.80
2023-05-17T08:49:34.271Z,4.30
2023-05-17T08:52:09.440Z,3.30
2023-05-17T08:54:42.683Z,4.07
2023-05-17T08:57:17.131Z,4.33
2023-05-17T08:59:49.468Z,4.07
2023-05-17T09:02:19.007Z,4.33
2023-05-17T09:04:56.288Z,4.50
2023-05-17T09:07:26.205Z,4.77
2023-05-17T09:09:55.304Z,4.90
2023-05-17T09:12:25.951Z,4.73
2023-05-17T09:15:15.360Z,5.97
2023-05-17T09:17:51.179Z,5.87
2023-05-17T09:20:25.565Z,5.90
2023-05-17T09:22:59.085Z,5.67
2023-05-17T09:28:11.049Z,6.80
2023-05-17T09:30:41.599Z,6.70
2023-05-17T09:33:15.085Z,6.50
2023-05-17T09:35:47.124Z,6.57
2023-05-17T09:38:16.059Z,7.37
2023-05-17T09:40:47.822Z,6.87
2023-05-17T09:43:23.121Z,6.60
2023-05-17T09:45:57.909Z,6.67
2023-05-17T09:48:33.322Z,7.13
2023-05-17T09:51:04.536Z,6.80
2023-05-17T09:53:39.475Z,6.67
2023-05-17T09:56:19.557Z,6.53
2023-05-17T09:58:53.018Z,7.13
2023-05-17T10:01:28.767Z,7.07
2023-05-17T10:04:01.386Z,6.77
2023-05-17T10:06:45.898Z,6.30
2023-05-17T10:09:23.242Z,6.53
2023-05-17T10:11:57.389Z,7.53
2023-05-17T10:17:01.233Z,7.00
2023-05-17T10:19:30.777Z,7.87
2023-05-17T10:22:18.342Z,7.17
2023-05-17T10:24:54.917Z,7.67
2023-05-17T10:27:30.772Z,7.90
2023-05-17T10:30:01.352Z,8.20
2023-05-17T10:32:32.636Z,7.80
2023-05-17T10:35:11.274Z,8.17
2023-05-17T10:37:44.977Z,7.37
2023-05-17T10:40:17.285Z,8.47
2023-05-17T10:42:50.885Z,7.67
2023-05-17T10:45:24.844Z,7.62
2023-05-17T10:50:24.605Z,6.75
2023-05-17T10:53:10.380Z,6.97
2023-05-17T10:55:42.207Z,6.20
2023-05-17T10:58:26.563Z,6.10
2023-05-17T11:00:56.828Z,6.23
2023-05-17T11:03:34.183Z,6.77
2023-05-17T11:06:25.265Z,6.43
2023-05-17T11:09:16.001Z,5.50
2023-05-17T11:12:09.075Z,4.87
2023-05-17T11:14:50.038Z,4.80
2023-05-17T11:17:21.707Z,5.10
2023-05-17T11:20:01.530Z,4.47
2023-05-17T11:22:38.105Z,5.17
2023-05-17T11:25:17.002Z,4.77
2023-05-17T11:27:49.100Z,5.17
2023-05-17T11:30:21.983Z,5.50
2023-05-17T11:32:54.379Z,4.70
2023-05-17T11:35:30.758Z,5.60
2023-05-17T11:38:17.837Z,4.70
2023-05-17T11:41:00.988Z,4.90
2023-05-17T11:43:31.310Z,4.90
2023-05-17T11:46:12.880Z,5.47
2023-05-17T11:48:45.745Z,6.20
2023-05-17T11:51:16.967Z,5.00
2023-05-17T11:53:48.715Z,5.53
2023-05-17T11:56:29.121Z,5.27
2023-05-17T11:59:06.321Z,4.50
2023-05-17T12:02:04.190Z,4.90
2023-05-17T12:04:38.061Z,4.73
2023-05-17T12:07:15.086Z,5.37
2023-05-17T12:09:48.378Z,5.10
2023-05-17T12:12:21.757Z,5.37
2023-05-17T12:14:52.261Z,6.03
2023-05-17T12:17:33.253Z,4.87
2023-05-17T12:20:16.990Z,5.37
2023-05-17T12:22:59.747Z,5.97
2023-05-17T12:25:32.836Z,5.90
2023-05-17T12:28:18.432Z,5.67
2023-05-17T12:30:54.939Z,6.23
2023-05-17T12:33:33.272Z,5.50
2023-05-17T12:36:08.692Z,6.30
2023-05-17T12:38:44.086Z,5.87
2023-05-17T12:41:19.047Z,6.30
2023-05-17T12:44:06.069Z,5.53
2023-05-17T12:47:29.429Z,6.53
2023-05-17T12:50:56.261Z,6.67
2023-05-17T12:53:54.056Z,5.80
2023-05-17T12:56:27.413Z,6.10
2023-05-17T12:59:11.005Z,5.50
2023-05-17T13:01:43.693Z,6.35
2023-05-17T13:04:13.564Z,5.60
2023-05-17T13:06:53.419Z,6.60
2023-05-17T13:09:27.455Z,7.20
2023-05-17T13:14:37.403Z,6.73
2023-05-17T13:17:09.669Z,6.55
2023-05-17T13:19:39.682Z,5.63
2023-05-17T13:22:12.862Z,6.70
2023-05-17T13:24:44.643Z,6.17
2023-05-17T13:27:15.337Z,6.30
2023-05-17T13:29:45.008Z,6.50
2023-05-17T13:32:16.506Z,6.07
2023-05-17T13:34:46.087Z,6.93
2023-05-17T13:37:15.534Z,6.60
2023-05-17T13:39:45.437Z,6.60
2023-05-17T13:42:18.281Z,7.80
2023-05-17T13:44:50.360Z,7.33
2023-05-17T13:47:19.737Z,5.87
2023-05-17T13:49:52.019Z,6.27
2023-05-17T13:52:25.639Z,6.23
2023-05-17T13:54:54.678Z,6.83
2023-05-17T13:57:23.850Z,5.63
2023-05-17T13:59:54.595Z,5.47
2023-05-17T14:02:24.672Z,5.73
2023-05-17T14:04:58.183Z,6.00
2023-05-17T14:07:29.790Z,6.77
2023-05-17T14:10:02.273Z,5.13
2023-05-17T14:12:34.700Z,6.30
2023-05-17T14:15:19.484Z,6.07
2023-05-17T14:17:50.272Z,6.03
2023-05-17T14:20:21.115Z,5.77
2023-05-17T14:22:51.583Z,5.33
2023-05-17T14:25:24.051Z,5.73
2023-05-17T14:28:01.978Z,5.33
2023-05-17T14:30:31.366Z,5.07
2023-05-17T14:33:12.703Z,4.87
2023-05-17T14:35:45.873Z,5.60
2023-05-17T14:38:15.263Z,5.00
2023-05-17T14:40:44.208Z,4.73
2023-05-17T14:43:15.949Z,5.27
2023-05-17T14:45:47.966Z,5.33
2023-05-17T14:48:27.588Z,4.83
2023-05-17T14:50:56.784Z,4.30
2023-05-17T14:53:30.595Z,3.97
2023-05-17T14:56:02.584Z,4.40
2023-05-17T14:58:33.993Z,5.00
2023-05-17T15:01:06.808Z,4.53
2023-05-17T15:03:38.047Z,4.57
2023-05-17T15:06:12.765Z,3.67
2023-05-17T15:08:46.333Z,4.77
2023-05-17T15:11:19.652Z,3.90
2023-05-17T15:13:50.763Z,3.90
2023-05-17T15:16:21.571Z,4.00
2023-05-17T15:18:54.811Z,4.50
2023-05-17T15:21:27.335Z,4.10
2023-05-17T15:23:56.650Z,4.50
2023-05-17T15:26:29.359Z,4.53
2023-05-17T15:29:02.996Z,4.27
2023-05-17T15:31:32.582Z,5.22
2023-05-17T15:34:01.621Z,4.33
2023-05-17T15:36:32.012Z,5.30
2023-05-17T15:39:01.593Z,4.67
2023-05-17T15:41:31.973Z,5.23
2023-05-17T15:44:02.179Z,5.23
2023-05-17T15:46:31.087Z,5.23
2023-05-17T15:49:00.874Z,3.97
2023-05-17T15:51:35.857Z,4.50
2023-05-17T15:54:06.068Z,4.93
2023-05-17T15:56:38.436Z,4.70
2023-05-17T15:59:15.792Z,5.13
2023-05-17T16:01:45.907Z,4.80
2023-05-17T16:04:19.553Z,5.00
2023-05-17T16:06:50.181Z,5.30
2023-05-17T16:09:24.430Z,4.30
2023-05-17T16:14:22.583Z,4.73
2023-05-17T16:16:55.833Z,4.90
2023-05-17T16:19:33.342Z,4.80
2023-05-17T16:22:08.411Z,4.17
2023-05-17T16:24:43.863Z,4.10
2023-05-17T16:27:14.793Z,4.80
2023-05-17T16:29:45.163Z,4.73
2023-05-17T16:32:18.785Z,4.00
2023-05-17T16:34:48.293Z,4.67
2023-05-17T16:37:22.552Z,4.37
2023-05-17T16:39:51.585Z,4.37
2023-05-17T16:42:20.635Z,4.43
2023-05-17T16:44:52.498Z,5.57
2023-05-17T16:47:23.232Z,4.47
2023-05-17T16:49:55.111Z,4.10
2023-05-17T16:52:29.500Z,3.97
2023-05-17T16:55:03.624Z,3.87
2023-05-17T16:57:33.893Z,4.87
2023-05-17T17:00:03.526Z,4.73
2023-05-17T17:02:38.376Z,4.70
2023-05-17T17:05:12.194Z,4.50
2023-05-17T17:07:42.185Z,4.77
2023-05-17T17:10:12.109Z,5.27
2023-05-17T17:12:42.529Z,4.93
2023-05-17T17:15:21.235Z,5.50
2023-05-17T17:17:53.225Z,5.20
2023-05-17T17:20:25.948Z,5.43
2023-05-17T17:23:00.125Z,5.23
2023-05-17T17:25:31.316Z,5.20
2023-05-17T17:28:10.915Z,5.40
2023-05-17T17:30:42.412Z,5.60
2023-05-17T17:33:13.061Z,4.87
2023-05-17T17:35:42.112Z,4.80
2023-05-17T17:38:16.381Z,4.80
2023-05-17T17:40:45.374Z,4.80
2023-05-17T17:43:17.416Z,5.00
2023-05-17T17:45:46.906Z,5.77
2023-05-17T17:48:16.829Z,4.97
2023-05-17T17:50:46.081Z,4.57
2023-05-17T17:53:19.724Z,5.37
2023-05-17T17:55:51.570Z,5.03
2023-05-17T17:58:23.568Z,5.13
2023-05-17T18:00:55.317Z,5.23
2023-05-17T18:03:44.121Z,5.50
2023-05-17T18:06:15.462Z,4.87
2023-05-17T18:08:44.587Z,4.53
2023-05-17T18:11:13.541Z,4.33
2023-05-17T18:13:42.860Z,5.40
2023-05-17T18:16:12.639Z,4.90
2023-05-17T18:18:42.127Z,4.90
2023-05-17T18:21:12.328Z,5.77
2023-05-17T18:23:41.390Z,4.90
2023-05-17T18:26:16.954Z,5.63
2023-05-17T18:28:45.933Z,5.30
2023-05-17T18:31:18.268Z,4.87
2023-05-17T18:33:57.272Z,5.40
2023-05-17T18:36:29.615Z,4.77
2023-05-17T18:39:00.431Z,5.35
2023-05-17T18:41:29.372Z,5.77
2023-05-17T18:44:02.409Z,5.57
2023-05-17T18:46:31.853Z,5.03
2023-05-17T18:49:07.830Z,5.37
2023-05-17T18:51:39.850Z,5.80
2023-05-17T18:54:13.175Z,5.17
2023-05-17T18:56:43.737Z,6.17
2023-05-17T18:59:15.600Z,6.93
2023-05-17T19:01:47.795Z,6.30
2023-05-17T19:04:17.562Z,6.13
2023-05-17T19:06:47.462Z,6.10
2023-05-17T19:09:17.433Z,6.27
2023-05-17T19:11:48.209Z,5.30
2023-05-17T19:14:17.416Z,6.83
2023-05-17T19:16:46.538Z,5.87
2023-05-17T19:19:16.455Z,6.10
2023-05-17T19:21:48.475Z,5.90
2023-05-17T19:24:18.350Z,6.23
2023-05-17T19:26:50.641Z,6.50
2023-05-17T19:29:30.876Z,6.13
2023-05-17T19:32:02.197Z,6.60
2023-05-17T19:34:31.560Z,6.23
2023-05-17T19:37:04.577Z,6.27
2023-05-17T19:39:37.037Z,6.33
2023-05-17T19:42:08.860Z,6.07
2023-05-17T19:44:42.920Z,5.87
2023-05-17T19:47:11.888Z,6.20
2023-05-17T19:49:51.944Z,7.10
2023-05-17T19:52:21.039Z,5.97
2023-05-17T19:54:52.342Z,6.77
2023-05-17T19:57:21.323Z,6.70
2023-05-17T19:59:52.160Z,5.60
2023-05-17T20:02:21.483Z,6.00
2023-05-17T20:04:51.230Z,6.95
2023-05-17T20:07:25.089Z,5.43
2023-05-17T20:09:54.063Z,6.40
2023-05-17T20:12:25.400Z,6.53
2023-05-17T20:14:57.191Z,5.53
2023-05-17T20:17:26.241Z,6.40
2023-05-17T20:19:55.149Z,6.13
2023-05-17T20:22:26.987Z,5.90
2023-05-17T20:24:57.935Z,6.80
2023-05-17T20:27:27.357Z,6.37
2023-05-17T20:29:56.375Z,6.07
2023-05-17T20:32:27.128Z,5.53
2023-05-17T20:34:56.299Z,6.33
2023-05-17T20:37:25.789Z,5.83
2023-05-17T20:39:56.952Z,6.13
2023-05-17T20:42:27.544Z,6.23
2023-05-17T20:44:59.023Z,7.07
2023-05-17T20:47:28.806Z,5.27
2023-05-17T20:49:59.284Z,5.90
2023-05-17T20:52:39.351Z,5.10
2023-05-17T20:55:13.036Z,6.50
2023-05-17T20:57:42.074Z,5.87
2023-05-17T21:00:17.942Z,5.73
2023-05-17T21:02:49.491Z,6.07
2023-05-17T21:05:22.434Z,5.87
2023-05-17T21:07:52.462Z,5.30
2023-05-17T21:10:23.136Z,6.27
2023-05-17T21:12:53.760Z,6.23
2023-05-17T21:15:24.519Z,6.97
2023-05-17T21:17:59.079Z,5.80
2023-05-17T21:20:28.015Z,5.90
2023-05-17T21:23:02.332Z,6.23
2023-05-17T21:25:31.306Z,6.27
2023-05-17T21:28:04.829Z,6.03
2023-05-17T21:30:33.806Z,6.72
2023-05-17T21:33:06.323Z,6.03
2023-05-17T21:35:36.037Z,6.10
2023-05-17T21:38:10.402Z,6.97
2023-05-17T21:40:40.247Z,5.77
2023-05-17T21:43:12.105Z,6.17
2023-05-17T21:45:41.396Z,6.57
2023-05-17T21:48:11.636Z,5.53
2023-05-17T21:50:40.781Z,6.50
2023-05-17T21:53:11.315Z,5.80
2023-05-17T21:55:51.264Z,4.83
2023-05-17T21:58:29.472Z,5.43
2023-05-17T22:00:58.613Z,6.40
2023-05-17T22:03:27.903Z,4.70
2023-05-17T22:05:57.384Z,5.07
2023-05-17T22:08:26.596Z,5.30
2023-05-17T22:11:00.806Z,4.70
2023-05-17T22:13:32.007Z,4.23
2023-05-17T22:16:01.383Z,5.37
2023-05-17T22:18:31.343Z,5.27
2023-05-17T22:21:00.816Z,4.50
2023-05-17T22:23:29.950Z,3.83
2023-05-17T22:26:00.665Z,4.45
2023-05-17T22:28:30.914Z,4.70
2023-05-17T22:30:59.856Z,4.30
2023-05-17T22:33:30.434Z,3.33
2023-05-17T22:36:01.964Z,4.63
2023-05-17T22:38:31.164Z,3.97
2023-05-17T22:41:00.706Z,4.00
2023-05-17T22:43:30.065Z,3.70
2023-05-17T22:45:59.385Z,4.20
2023-05-17T22:48:30.013Z,3.80
2023-05-17T22:51:00.731Z,3.47
2023-05-17T22:53:30.201Z,3.33
2023-05-17T22:55:59.446Z,3.60
2023-05-17T22:58:28.467Z,3.57
2023-05-17T23:00:58.913Z,4.30
2023-05-17T23:03:28.772Z,3.70
2023-05-17T23:06:02.709Z,3.40
2023-05-17T23:11:01.243Z,3.17
2023-05-17T23:13:30.351Z,3.10
2023-05-17T23:16:01.860Z,2.80
2023-05-17T23:18:35.867Z,3.93
2023-05-17T23:21:05.302Z,3.57
2023-05-17T23:23:34.192Z,3.60
2023-05-17T23:26:05.382Z,3.43
2023-05-17T23:28:34.992Z,2.97
2023-05-17T23:31:05.271Z,3.40
2023-05-17T23:33:36.929Z,3.30
2023-05-17T23:36:09.545Z,3.17
2023-05-17T23:38:38.708Z,3.30
2023-05-17T23:41:07.829Z,2.87
2023-05-17T23:43:37.860Z,2.87
2023-05-17T23:46:10.472Z,3.20
2023-05-17T23:48:39.451Z,3.07
2023-05-17T23:51:09.368Z,2.50
2023-05-17T23:53:38.311Z,2.97
2023-05-17T23:56:07.775Z,2.70
2023-05-17T23:58:39.785Z,3.20
